sensor_id;sensor_type;location;lat;lon;timestamp;pressure;altitude;pressure_sealevel;temperature;humidity
13314;BME280;6725;48.112;11.604;2022-09-03T00:00:38;94024.72;;;14.17;100.00
13314;BME280;6725;48.112;11.604;2022-09-03T00:03:22;94032.03;;;14.20;100.00
13314;BME280;6725;48.112;11.604;2022-09-03T00:11:20;94028.41;;;14.23;100.00
13314;BME280;6725;48.112;11.604;2022-09-03T00:13:53;94030.84;;;14.21;100.00
13314;BME280;6725;48.112;11.604;2022-09-03T00:16:25;94038.44;;;14.17;100.00
13314;BME280;6725;48.112;11.604;2022-09-03T00:19:01;94038.94;;;14.25;100.00
13314;BME280;6725;48.112;11.604;2022-09-03T00:21:39;94045.34;;;14.31;100.00
13314;BME280;6725;48.112;11.604;2022-09-03T00:24:08;94031.75;;;14.36;100.00
13314;BME280;6725;48.112;11.604;2022-09-03T00:26:35;94038.00;;;14.37;100.00
13314;BME280;6725;48.112;11.604;2022-09-03T00:29:08;94041.22;;;14.35;100.00
13314;BME280;6725;48.112;11.604;2022-09-03T00:31:49;94043.66;;;14.33;100.00
13314;BME280;6725;48.112;11.604;2022-09-03T00:34:22;94041.53;;;14.28;100.00
13314;BME280;6725;48.112;11.604;2022-09-03T00:36:51;94112.03;;;14.22;100.00
13314;BME280;6725;48.112;11.604;2022-09-03T00:39:20;94123.56;;;14.17;100.00
13314;BME280;6725;48.112;11.604;2022-09-03T00:53:17;94129.03;;;13.81;100.00
13314;BME280;6725;48.112;11.604;2022-09-03T00:56:10;94134.19;;;13.70;100.00
13314;BME280;6725;48.112;11.604;2022-09-03T00:58:58;94145.91;;;13.71;100.00
13314;BME280;6725;48.112;11.604;2022-09-03T01:01:29;94153.69;;;13.72;100.00
13314;BME280;6725;48.112;11.604;2022-09-03T01:04:11;94162.53;;;13.67;100.00
13314;BME280;6725;48.112;11.604;2022-09-03T01:06:48;94158.41;;;13.72;100.00
13314;BME280;6725;48.112;11.604;2022-09-03T01:12:19;94154.59;;;13.69;100.00
13314;BME280;6725;48.112;11.604;2022-09-03T01:17:39;94152.75;;;13.57;100.00
13314;BME280;6725;48.112;11.604;2022-09-03T01:25:58;94177.09;;;13.55;100.00
13314;BME280;6725;48.112;11.604;2022-09-03T01:28:47;94172.84;;;13.54;100.00
13314;BME280;6725;48.112;11.604;2022-09-03T01:31:48;94164.31;;;13.52;100.00
13314;BME280;6725;48.112;11.604;2022-09-03T01:45:21;94160.59;;;13.37;100.00
13314;BME280;6725;48.112;11.604;2022-09-03T02:00:58;94162.63;;;13.15;100.00
13314;BME280;6725;48.112;11.604;2022-09-03T02:03:37;94151.66;;;13.15;100.00
13314;BME280;6725;48.112;11.604;2022-09-03T02:06:03;94142.84;;;13.20;100.00
13314;BME280;6725;48.112;11.604;2022-09-03T02:08:32;94148.00;;;13.18;100.00
13314;BME280;6725;48.112;11.604;2022-09-03T02:10:58;94144.06;;;13.19;100.00
13314;BME280;6725;48.112;11.604;2022-09-03T02:13:46;94139.47;;;13.16;100.00
13314;BME280;6725;48.112;11.604;2022-09-03T02:16:17;94141.00;;;13.17;100.00
13314;BME280;6725;48.112;11.604;2022-09-03T02:18:50;94137.13;;;13.05;100.00
13314;BME280;6725;48.112;11.604;2022-09-03T02:21:19;94138.22;;;13.08;100.00
13314;BME280;6725;48.112;11.604;2022-09-03T02:23:45;94141.25;;;13.10;100.00
13314;BME280;6725;48.112;11.604;2022-09-03T02:26:15;94156.19;;;13.09;100.00
13314;BME280;6725;48.112;11.604;2022-09-03T02:28:42;94160.16;;;13.08;100.00
13314;BME280;6725;48.112;11.604;2022-09-03T02:31:09;94158.59;;;13.07;100.00
13314;BME280;6725;48.112;11.604;2022-09-03T02:33:39;94154.66;;;13.08;100.00
13314;BME280;6725;48.112;11.604;2022-09-03T02:36:08;94157.84;;;13.06;100.00
13314;BME280;6725;48.112;11.604;2022-09-03T02:38:34;94160.41;;;13.01;100.00
13314;BME280;6725;48.112;11.604;2022-09-03T02:41:00;94152.63;;;12.99;100.00
13314;BME280;6725;48.112;11.604;2022-09-03T02:43:35;94165.56;;;12.99;100.00
13314;BME280;6725;48.112;11.604;2022-09-03T02:46:04;94161.72;;;12.96;100.00
13314;BME280;6725;48.112;11.604;2022-09-03T02:48:32;94161.53;;;12.91;100.00
13314;BME280;6725;48.112;11.604;2022-09-03T02:50:58;94161.53;;;12.91;100.00
13314;BME280;6725;48.112;11.604;2022-09-03T02:53:23;94167.47;;;12.89;100.00
13314;BME280;6725;48.112;11.604;2022-09-03T02:55:49;94161.53;;;12.91;100.00
13314;BME280;6725;48.112;11.604;2022-09-03T02:58:15;94163.94;;;12.89;100.00
13314;BME280;6725;48.112;11.604;2022-09-03T03:00:40;94155.09;;;12.85;100.00
13314;BME280;6725;48.112;11.604;2022-09-03T03:03:05;94153.28;;;12.82;100.00
13314;BME280;6725;48.112;11.604;2022-09-03T03:08:05;94159.66;;;12.79;100.00
13314;BME280;6725;48.112;11.604;2022-09-03T03:10:30;94152.63;;;12.78;100.00
13314;BME280;6725;48.112;11.604;2022-09-03T03:12:56;94149.84;;;12.69;100.00
13314;BME280;6725;48.112;11.604;2022-09-03T03:15:21;94150.09;;;12.62;100.00
13314;BME280;6725;48.112;11.604;2022-09-03T03:17:47;94150.78;;;12.53;100.00
13314;BME280;6725;48.112;11.604;2022-09-03T03:20:12;94161.69;;;12.44;100.00
13314;BME280;6725;48.112;11.604;2022-09-03T03:22:37;94156.66;;;12.43;100.00
13314;BME280;6725;48.112;11.604;2022-09-03T03:25:03;94153.91;;;12.43;100.00
13314;BME280;6725;48.112;11.604;2022-09-03T03:27:29;94159.38;;;12.43;100.00
13314;BME280;6725;48.112;11.604;2022-09-03T03:29:55;94158.31;;;12.40;100.00
13314;BME280;6725;48.112;11.604;2022-09-03T03:32:22;94164.97;;;12.39;100.00
13314;BME280;6725;48.112;11.604;2022-09-03T03:34:47;94167.28;;;12.41;100.00
13314;BME280;6725;48.112;11.604;2022-09-03T03:37:13;94171.88;;;12.44;100.00
13314;BME280;6725;48.112;11.604;2022-09-03T03:39:38;94174.59;;;12.44;100.00
13314;BME280;6725;48.112;11.604;2022-09-03T03:42:03;94178.84;;;12.45;100.00
13314;BME280;6725;48.112;11.604;2022-09-03T03:44:29;94170.34;;;12.43;100.00
13314;BME280;6725;48.112;11.604;2022-09-03T03:46:54;94168.03;;;12.41;100.00
13314;BME280;6725;48.112;11.604;2022-09-03T03:49:20;94177.91;;;12.39;100.00
13314;BME280;6725;48.112;11.604;2022-09-03T03:51:45;94180.66;;;12.39;100.00
13314;BME280;6725;48.112;11.604;2022-09-03T03:54:11;94180.66;;;12.39;100.00
13314;BME280;6725;48.112;11.604;2022-09-03T03:56:36;94177.59;;;12.37;100.00
13314;BME280;6725;48.112;11.604;2022-09-03T03:59:03;94176.94;;;12.33;100.00
13314;BME280;6725;48.112;11.604;2022-09-03T04:01:29;94182.13;;;12.31;100.00
13314;BME280;6725;48.112;11.604;2022-09-03T04:03:58;94199.72;;;12.30;100.00
13314;BME280;6725;48.112;11.604;2022-09-03T04:06:24;94189.66;;;12.27;100.00
13314;BME280;6725;48.112;11.604;2022-09-03T04:08:49;94174.44;;;12.26;100.00
13314;BME280;6725;48.112;11.604;2022-09-03T04:11:20;94179.91;;;12.26;100.00
13314;BME280;6725;48.112;11.604;2022-09-03T04:13:47;94182.66;;;12.26;100.00
13314;BME280;6725;48.112;11.604;2022-09-03T04:16:21;94170.97;;;12.25;100.00
13314;BME280;6725;48.112;11.604;2022-09-03T04:18:47;94177.19;;;12.26;100.00
13314;BME280;6725;48.112;11.604;2022-09-03T04:21:19;94176.53;;;12.22;100.00
13314;BME280;6725;48.112;11.604;2022-09-03T04:23:45;94169.56;;;12.21;100.00
13314;BME280;6725;48.112;11.604;2022-09-03T04:26:13;94176.53;;;12.22;100.00
13314;BME280;6725;48.112;11.604;2022-09-03T04:28:39;94173.22;;;12.27;100.00
13314;BME280;6725;48.112;11.604;2022-09-03T04:31:08;94166.13;;;12.29;100.00
13314;BME280;6725;48.112;11.604;2022-09-03T04:33:34;94171.47;;;12.33;100.00
13314;BME280;6725;48.112;11.604;2022-09-03T04:36:13;94171.22;;;12.40;100.00
13314;BME280;6725;48.112;11.604;2022-09-03T04:38:42;94174.59;;;12.44;100.00
13314;BME280;6725;48.112;11.604;2022-09-03T04:41:13;94178.63;;;12.52;100.00
13314;BME280;6725;48.112;11.604;2022-09-03T04:43:40;94183.84;;;12.59;100.00
13314;BME280;6725;48.112;11.604;2022-09-03T04:46:10;94176.44;;;12.68;100.00
13314;BME280;6725;48.112;11.604;2022-09-03T04:48:36;94188.81;;;12.73;100.00
13314;BME280;6725;48.112;11.604;2022-09-03T04:51:06;94183.88;;;12.80;100.00
13314;BME280;6725;48.112;11.604;2022-09-03T04:53:34;94178.13;;;13.09;100.00
13314;BME280;6725;48.112;11.604;2022-09-03T04:56:00;94181.03;;;13.45;100.00
13314;BME280;6725;48.112;11.604;2022-09-03T04:58:25;94182.25;;;13.84;100.00
13314;BME280;6725;48.112;11.604;2022-09-03T05:00:51;94174.59;;;14.36;100.00
13314;BME280;6725;48.112;11.604;2022-09-03T05:03:17;94162.94;;;14.86;100.00
13314;BME280;6725;48.112;11.604;2022-09-03T05:05:50;94152.63;;;15.41;100.00
13314;BME280;6725;48.112;11.604;2022-09-03T05:08:16;94149.84;;;15.82;100.00
13314;BME280;6725;48.112;11.604;2022-09-03T05:10:41;94131.78;;;16.28;100.00
13314;BME280;6725;48.112;11.604;2022-09-03T05:13:07;94107.38;;;16.60;100.00
13314;BME280;6725;48.112;11.604;2022-09-03T05:15:32;94083.06;;;17.16;100.00
13314;BME280;6725;48.112;11.604;2022-09-03T05:17:59;94046.09;;;17.43;100.00
13314;BME280;6725;48.112;11.604;2022-09-03T05:20:26;94015.41;;;17.95;100.00
13314;BME280;6725;48.112;11.604;2022-09-03T05:22:54;93980.53;;;18.18;100.00
13314;BME280;6725;48.112;11.604;2022-09-03T05:25:20;93949.59;;;18.65;100.00
13314;BME280;6725;48.112;11.604;2022-09-03T05:27:45;93915.72;;;19.12;100.00
13314;BME280;6725;48.112;11.604;2022-09-03T05:30:11;93901.16;;;19.17;100.00
13314;BME280;6725;48.112;11.604;2022-09-03T05:32:38;93868.41;;;19.63;100.00
13314;BME280;6725;48.112;11.604;2022-09-03T05:35:03;93758.94;;;20.12;100.00
13314;BME280;6725;48.112;11.604;2022-09-03T05:37:29;94114.91;;;20.36;100.00
13314;BME280;6725;48.112;11.604;2022-09-03T05:39:54;94239.22;;;20.74;100.00
13314;BME280;6725;48.112;11.604;2022-09-03T05:42:20;94302.38;;;20.90;100.00
13314;BME280;6725;48.112;11.604;2022-09-03T05:44:46;94373.22;;;21.11;100.00
13314;BME280;6725;48.112;11.604;2022-09-03T05:47:13;94424.66;;;21.01;100.00
13314;BME280;6725;48.112;11.604;2022-09-03T05:49:39;94420.22;;;20.58;100.00
13314;BME280;6725;48.112;11.604;2022-09-03T05:52:05;94405.84;;;19.83;100.00
13314;BME280;6725;48.112;11.604;2022-09-03T05:54:30;94371.66;;;19.46;100.00
13314;BME280;6725;48.112;11.604;2022-09-03T05:56:56;94368.97;;;19.77;100.00
13314;BME280;6725;48.112;11.604;2022-09-03T05:59:21;94426.09;;;19.89;100.00
13314;BME280;6725;48.112;11.604;2022-09-03T06:01:46;94466.69;;;20.12;100.00
13314;BME280;6725;48.112;11.604;2022-09-03T06:04:14;94436.63;;;19.45;100.00
13314;BME280;6725;48.112;11.604;2022-09-03T06:06:45;94424.34;;;19.92;100.00
13314;BME280;6725;48.112;11.604;2022-09-03T06:09:13;94485.56;;;20.34;100.00
13314;BME280;6725;48.112;11.604;2022-09-03T06:11:40;94537.34;;;20.62;100.00
13314;BME280;6725;48.112;11.604;2022-09-03T06:14:10;94568.00;;;20.73;100.00
13314;BME280;6725;48.112;11.604;2022-09-03T06:16:38;94580.06;;;20.70;100.00
13314;BME280;6725;48.112;11.604;2022-09-03T06:19:04;94644.09;;;21.32;100.00
13314;BME280;6725;48.112;11.604;2022-09-03T06:21:35;94718.94;;;21.92;100.00
13314;BME280;6725;48.112;11.604;2022-09-03T06:24:01;94725.38;;;21.53;100.00
13314;BME280;6725;48.112;11.604;2022-09-03T06:26:27;94745.06;;;22.31;100.00
13314;BME280;6725;48.112;11.604;2022-09-03T06:28:53;94762.38;;;22.89;100.00
13314;BME280;6725;48.112;11.604;2022-09-03T06:31:20;94788.63;;;22.71;100.00
13314;BME280;6725;48.112;11.604;2022-09-03T06:33:47;94790.03;;;22.24;100.00
13314;BME280;6725;48.112;11.604;2022-09-03T06:36:15;94778.53;;;21.40;100.00
13314;BME280;6725;48.112;11.604;2022-09-03T06:38:42;94746.94;;;21.18;100.00
13314;BME280;6725;48.112;11.604;2022-09-03T06:41:10;94754.09;;;20.84;100.00
13314;BME280;6725;48.112;11.604;2022-09-03T06:43:38;94707.63;;;20.10;100.00
13314;BME280;6725;48.112;11.604;2022-09-03T06:46:06;94685.75;;;20.12;100.00
13314;BME280;6725;48.112;11.604;2022-09-03T06:48:33;94679.44;;;19.97;100.00
13314;BME280;6725;48.112;11.604;2022-09-03T06:51:03;94674.94;;;19.85;100.00
13314;BME280;6725;48.112;11.604;2022-09-03T06:53:34;94658.16;;;19.74;100.00
13314;BME280;6725;48.112;11.604;2022-09-03T06:56:02;94635.22;;;19.59;100.00
13314;BME280;6725;48.112;11.604;2022-09-03T06:58:30;94648.44;;;19.49;100.00
13314;BME280;6725;48.112;11.604;2022-09-03T07:01:10;94606.41;;;19.22;100.00
13314;BME280;6725;48.112;11.604;2022-09-03T07:03:37;94599.81;;;19.19;100.00
13314;BME280;6725;48.112;11.604;2022-09-03T07:06:11;94579.38;;;18.88;100.00
13314;BME280;6725;48.112;11.604;2022-09-03T07:08:37;94531.84;;;18.75;100.00
13314;BME280;6725;48.112;11.604;2022-09-03T07:11:05;94462.81;;;18.66;100.00
13314;BME280;6725;48.112;11.604;2022-09-03T07:13:34;94455.47;;;18.63;100.00
13314;BME280;6725;48.112;11.604;2022-09-03T07:16:05;94409.31;;;18.40;100.00
13314;BME280;6725;48.112;11.604;2022-09-03T07:18:32;94238.56;;;18.35;100.00
13314;BME280;6725;48.112;11.604;2022-09-03T07:21:01;94087.53;;;18.17;100.00
13314;BME280;6725;48.112;11.604;2022-09-03T07:23:29;93677.94;;;18.02;100.00
13314;BME280;6725;48.112;11.604;2022-09-03T07:25:56;93621.31;;;17.87;100.00
13314;BME280;6725;48.112;11.604;2022-09-03T07:28:23;93726.09;;;17.65;100.00
13314;BME280;6725;48.112;11.604;2022-09-03T07:30:50;93797.47;;;17.72;100.00
13314;BME280;6725;48.112;11.604;2022-09-03T07:33:15;93997.88;;;17.58;100.00
13314;BME280;6725;48.112;11.604;2022-09-03T07:35:41;94025.13;;;17.51;100.00
13314;BME280;6725;48.112;11.604;2022-09-03T07:38:06;94027.22;;;17.56;100.00
13314;BME280;6725;48.112;11.604;2022-09-03T07:40:32;94018.06;;;17.64;100.00
13314;BME280;6725;48.112;11.604;2022-09-03T07:42:57;94026.81;;;17.63;100.00
13314;BME280;6725;48.112;11.604;2022-09-03T07:45:28;94046.41;;;17.65;100.00
13314;BME280;6725;48.112;11.604;2022-09-03T07:47:54;94062.94;;;17.45;100.00
13314;BME280;6725;48.112;11.604;2022-09-03T07:50:19;94120.88;;;17.30;100.00
13314;BME280;6725;48.112;11.604;2022-09-03T07:52:44;94160.22;;;17.11;100.00
13314;BME280;6725;48.112;11.604;2022-09-03T07:55:11;94203.28;;;16.94;100.00
13314;BME280;6725;48.112;11.604;2022-09-03T07:57:36;94200.31;;;16.83;100.00
13314;BME280;6725;48.112;11.604;2022-09-03T08:00:02;94210.50;;;16.91;100.00
13314;BME280;6725;48.112;11.604;2022-09-03T08:02:28;94215.81;;;16.95;100.00
13314;BME280;6725;48.112;11.604;2022-09-03T08:04:53;94218.88;;;16.97;100.00
13314;BME280;6725;48.112;11.604;2022-09-03T08:07:18;94215.19;;;17.00;100.00
13314;BME280;6725;48.112;11.604;2022-09-03T08:09:44;94226.97;;;17.00;100.00
13314;BME280;6725;48.112;11.604;2022-09-03T08:12:09;94235.28;;;17.15;100.00
13314;BME280;6725;48.112;11.604;2022-09-03T08:14:34;94220.44;;;17.27;100.00
13314;BME280;6725;48.112;11.604;2022-09-03T08:17:00;94223.09;;;17.36;100.00
13314;BME280;6725;48.112;11.604;2022-09-03T08:19:25;94213.16;;;17.53;100.00
13314;BME280;6725;48.112;11.604;2022-09-03T08:21:50;94204.66;;;17.71;100.00
13314;BME280;6725;48.112;11.604;2022-09-03T08:24:17;94192.16;;;17.90;100.00
13314;BME280;6725;48.112;11.604;2022-09-03T08:26:43;94197.75;;;18.10;100.00
13314;BME280;6725;48.112;11.604;2022-09-03T08:29:08;94188.81;;;18.35;100.00
13314;BME280;6725;48.112;11.604;2022-09-03T08:31:35;94183.84;;;18.59;100.00
13314;BME280;6725;48.112;11.604;2022-09-03T08:34:02;94174.13;;;18.89;100.00
13314;BME280;6725;48.112;11.604;2022-09-03T08:36:32;94165.78;;;19.29;100.00
13314;BME280;6725;48.112;11.604;2022-09-03T08:39:00;94164.06;;;19.63;100.00
13314;BME280;6725;48.112;11.604;2022-09-03T08:52:16;93957.41;;;22.18;100.00
13314;BME280;6725;48.112;11.604;2022-09-03T08:54:46;93931.03;;;22.30;100.00
13314;BME280;6725;48.112;11.604;2022-09-03T08:57:15;93903.16;;;23.60;100.00
13314;BME280;6725;48.112;11.604;2022-09-03T08:59:44;93734.19;;;25.48;100.00
13314;BME280;6725;48.112;11.604;2022-09-03T09:05:02;94854.56;;;26.30;100.00
13314;BME280;6725;48.112;11.604;2022-09-03T09:10:28;94809.03;;;28.03;100.00
13314;BME280;6725;48.112;11.604;2022-09-03T09:21:16;94760.59;;;25.94;100.00
13314;BME280;6725;48.112;11.604;2022-09-03T09:23:48;94684.09;;;25.40;100.00
13314;BME280;6725;48.112;11.604;2022-09-03T09:26:16;94591.53;;;24.97;100.00
13314;BME280;6725;48.112;11.604;2022-09-03T09:28:45;94640.31;;;25.48;100.00
13314;BME280;6725;48.112;11.604;2022-09-03T09:31:13;94745.34;;;26.60;100.00
13314;BME280;6725;48.112;11.604;2022-09-03T09:33:40;94783.75;;;27.18;100.00
13314;BME280;6725;48.112;11.604;2022-09-03T09:36:13;94840.53;;;27.72;100.00
13314;BME280;6725;48.112;11.604;2022-09-03T09:38:41;94904.97;;;27.35;100.00
13314;BME280;6725;48.112;11.604;2022-09-03T09:41:15;94876.28;;;27.48;100.00
13314;BME280;6725;48.112;11.604;2022-09-03T09:43:42;94865.25;;;27.55;100.00
13314;BME280;6725;48.112;11.604;2022-09-03T09:46:11;94893.81;;;27.78;100.00
13314;BME280;6725;48.112;11.604;2022-09-03T09:48:42;94882.59;;;27.30;100.00
13314;BME280;6725;48.112;11.604;2022-09-03T09:51:20;94875.09;;;28.28;100.00
13314;BME280;6725;48.112;11.604;2022-09-03T09:53:46;94994.00;;;29.48;97.95
13314;BME280;6725;48.112;11.604;2022-09-03T09:56:30;95056.06;;;29.74;90.00
13314;BME280;6725;48.112;11.604;2022-09-03T09:59:06;95047.66;;;28.63;96.54
13314;BME280;6725;48.112;11.604;2022-09-03T10:01:33;95031.13;;;28.05;98.86
13314;BME280;6725;48.112;11.604;2022-09-03T10:04:00;95035.13;;;28.15;97.67
13314;BME280;6725;48.112;11.604;2022-09-03T10:06:32;95050.22;;;28.12;95.09
13314;BME280;6725;48.112;11.604;2022-09-03T10:09:34;95045.50;;;28.26;97.92
13314;BME280;6725;48.112;11.604;2022-09-03T10:15:32;95054.97;;;27.69;98.05
13314;BME280;6725;48.112;11.604;2022-09-03T10:20:41;95020.84;;;26.84;100.00
13314;BME280;6725;48.112;11.604;2022-09-03T10:23:14;95025.09;;;27.02;100.00
13314;BME280;6725;48.112;11.604;2022-09-03T10:28:23;95033.78;;;26.93;100.00
13314;BME280;6725;48.112;11.604;2022-09-03T10:31:38;95036.16;;;27.29;100.00
13314;BME280;6725;48.112;11.604;2022-09-03T10:33:55;95028.34;;;27.11;100.00
13314;BME280;6725;48.112;11.604;2022-09-03T10:36:26;95028.00;;;26.85;100.00
13314;BME280;6725;48.112;11.604;2022-09-03T10:39:15;95018.03;;;26.27;100.00
13314;BME280;6725;48.112;11.604;2022-09-03T10:44:47;95046.13;;;27.54;100.00
13314;BME280;6725;48.112;11.604;2022-09-03T10:47:25;95035.97;;;27.11;98.83
13314;BME280;6725;48.112;11.604;2022-09-03T10:55:26;95086.47;;;30.07;84.56
13314;BME280;6725;48.112;11.604;2022-09-03T10:58:49;95125.63;;;31.20;73.22
13314;BME280;6725;48.112;11.604;2022-09-03T11:03:42;95113.19;;;32.16;62.50
13314;BME280;6725;48.112;11.604;2022-09-03T11:06:41;95117.16;;;31.33;63.85
13314;BME280;6725;48.112;11.604;2022-09-03T11:09:18;95125.34;;;31.57;64.12
13314;BME280;6725;48.112;11.604;2022-09-03T11:11:50;95119.66;;;30.58;66.12
13314;BME280;6725;48.112;11.604;2022-09-03T11:14:29;95115.16;;;29.61;71.15
13314;BME280;6725;48.112;11.604;2022-09-03T11:17:08;95107.94;;;28.86;79.30
13314;BME280;6725;48.112;11.604;2022-09-03T11:22:30;95108.91;;;28.70;84.33
13314;BME280;6725;48.112;11.604;2022-09-03T11:24:58;95098.91;;;28.93;83.06
13314;BME280;6725;48.112;11.604;2022-09-03T11:27:44;95091.25;;;29.12;79.78
13314;BME280;6725;48.112;11.604;2022-09-03T11:30:22;95096.13;;;29.11;77.72
13314;BME280;6725;48.112;11.604;2022-09-03T11:32:55;95093.09;;;28.67;80.02
13314;BME280;6725;48.112;11.604;2022-09-03T11:38:00;95079.22;;;28.26;83.51
13314;BME280;6725;48.112;11.604;2022-09-03T11:40:38;95089.97;;;27.63;86.22
13314;BME280;6725;48.112;11.604;2022-09-03T11:47:56;95087.84;;;27.74;86.30
13314;BME280;6725;48.112;11.604;2022-09-03T11:50:32;95081.31;;;27.61;89.79
13314;BME280;6725;48.112;11.604;2022-09-03T11:53:23;95075.41;;;27.64;91.43
13314;BME280;6725;48.112;11.604;2022-09-03T11:58:34;95073.03;;;27.44;88.74
13314;BME280;6725;48.112;11.604;2022-09-03T12:01:03;95074.69;;;27.23;91.87
13314;BME280;6725;48.112;11.604;2022-09-03T12:03:58;95071.78;;;26.88;92.41
13314;BME280;6725;48.112;11.604;2022-09-03T12:21:01;95030.06;;;24.95;100.00
13314;BME280;6725;48.112;11.604;2022-09-03T12:23:32;95039.75;;;25.22;100.00
13314;BME280;6725;48.112;11.604;2022-09-03T12:26:26;95029.59;;;25.41;99.28
13314;BME280;6725;48.112;11.604;2022-09-03T12:28:54;95033.91;;;25.42;99.60
13314;BME280;6725;48.112;11.604;2022-09-03T12:31:22;95026.56;;;25.56;100.00
13314;BME280;6725;48.112;11.604;2022-09-03T12:34:07;95027.06;;;25.60;100.00
13314;BME280;6725;48.112;11.604;2022-09-03T12:36:42;95028.59;;;25.61;99.83
13314;BME280;6725;48.112;11.604;2022-09-03T12:39:27;95010.81;;;25.42;100.00
13314;BME280;6725;48.112;11.604;2022-09-03T12:41:58;94993.53;;;25.32;100.00
13314;BME280;6725;48.112;11.604;2022-09-03T12:44:27;95004.44;;;25.52;99.28
13314;BME280;6725;48.112;11.604;2022-09-03T12:47:17;95014.63;;;25.44;95.68
13314;BME280;6725;48.112;11.604;2022-09-03T12:49:44;95026.81;;;25.52;96.96
13314;BME280;6725;48.112;11.604;2022-09-03T12:54:52;95019.69;;;25.29;99.32
13314;BME280;6725;48.112;11.604;2022-09-03T12:57:23;95004.88;;;24.90;100.00
13314;BME280;6725;48.112;11.604;2022-09-03T12:59:55;94999.78;;;24.83;100.00
13314;BME280;6725;48.112;11.604;2022-09-03T13:02:28;94994.47;;;24.90;100.00
13314;BME280;6725;48.112;11.604;2022-09-03T13:04:59;95001.84;;;24.88;100.00
13314;BME280;6725;48.112;11.604;2022-09-03T13:07:29;94990.91;;;24.95;99.69
13314;BME280;6725;48.112;11.604;2022-09-03T13:10:02;94992.63;;;24.60;97.96
13314;BME280;6725;48.112;11.604;2022-09-03T13:12:49;94989.91;;;24.87;98.19
13314;BME280;6725;48.112;11.604;2022-09-03T13:15:21;94993.72;;;25.28;97.57
13314;BME280;6725;48.112;11.604;2022-09-03T13:18:07;94994.00;;;25.03;99.48
13314;BME280;6725;48.112;11.604;2022-09-03T13:20:48;94981.78;;;25.00;100.00
13314;BME280;6725;48.112;11.604;2022-09-03T13:25:56;94995.28;;;25.18;100.00
13314;BME280;6725;48.112;11.604;2022-09-03T13:32:05;95001.38;;;25.17;100.00
13314;BME280;6725;48.112;11.604;2022-09-03T13:34:36;95005.66;;;24.90;100.00
13314;BME280;6725;48.112;11.604;2022-09-03T13:39:53;95007.63;;;24.68;100.00
13314;BME280;6725;48.112;11.604;2022-09-03T13:42:33;95000.03;;;24.68;100.00
13314;BME280;6725;48.112;11.604;2022-09-03T13:45:32;94993.38;;;24.60;100.00
13314;BME280;6725;48.112;11.604;2022-09-03T13:50:52;94989.81;;;24.54;100.00
13314;BME280;6725;48.112;11.604;2022-09-03T13:55:55;94966.44;;;24.46;100.00
13314;BME280;6725;48.112;11.604;2022-09-03T13:58:43;94981.25;;;24.74;100.00
13314;BME280;6725;48.112;11.604;2022-09-03T14:01:19;94985.31;;;24.79;100.00
13314;BME280;6725;48.112;11.604;2022-09-03T14:03:51;94987.38;;;25.00;100.00
13314;BME280;6725;48.112;11.604;2022-09-03T14:11:56;94934.19;;;24.40;100.00
13314;BME280;6725;48.112;11.604;2022-09-03T14:19:51;94801.34;;;23.95;100.00
13314;BME280;6725;48.112;11.604;2022-09-03T14:22:24;94709.00;;;23.65;100.00
13314;BME280;6725;48.112;11.604;2022-09-03T14:24:59;94700.13;;;23.67;100.00
13314;BME280;6725;48.112;11.604;2022-09-03T14:27:29;94705.19;;;23.63;100.00
13314;BME280;6725;48.112;11.604;2022-09-03T14:30:04;94676.00;;;23.53;100.00
13314;BME280;6725;48.112;11.604;2022-09-03T14:35:33;93810.78;;;22.48;100.00
13314;BME280;6725;48.112;11.604;2022-09-03T14:41:05;93635.09;;;18.23;100.00
13314;BME280;6725;48.112;11.604;2022-09-03T14:44:13;94143.75;;;17.60;100.00
13314;BME280;6725;48.112;11.604;2022-09-03T14:58:13;93880.28;;;16.92;100.00
13314;BME280;6725;48.112;11.604;2022-09-03T15:09:30;93801.56;;;16.91;100.00
13314;BME280;6725;48.112;11.604;2022-09-03T15:12:07;93771.28;;;16.96;100.00
13314;BME280;6725;48.112;11.604;2022-09-03T15:14:49;93740.47;;;16.98;100.00
13314;BME280;6725;48.112;11.604;2022-09-03T15:20:31;93710.66;;;17.02;100.00
13314;BME280;6725;48.112;11.604;2022-09-03T15:34:25;93919.66;;;16.43;100.00
13314;BME280;6725;48.112;11.604;2022-09-03T15:36:58;93909.94;;;16.33;100.00
13314;BME280;6725;48.112;11.604;2022-09-03T15:39:31;93932.34;;;15.97;100.00
13314;BME280;6725;48.112;11.604;2022-09-03T15:44:32;93951.00;;;15.78;100.00
13314;BME280;6725;48.112;11.604;2022-09-03T15:47:01;93982.16;;;15.70;100.00
13314;BME280;6725;48.112;11.604;2022-09-03T15:52:22;94002.47;;;15.72;100.00
13314;BME280;6725;48.112;11.604;2022-09-03T15:57:53;93969.91;;;15.85;100.00
13314;BME280;6725;48.112;11.604;2022-09-03T16:00:30;93952.00;;;15.90;100.00
13314;BME280;6725;48.112;11.604;2022-09-03T16:03:07;93921.81;;;15.95;100.00
13314;BME280;6725;48.112;11.604;2022-09-03T16:05:46;93887.44;;;16.05;100.00
13314;BME280;6725;48.112;11.604;2022-09-03T16:16:45;93756.44;;;16.19;100.00
13314;BME280;6725;48.112;11.604;2022-09-03T16:19:15;93741.66;;;16.36;100.00
13314;BME280;6725;48.112;11.604;2022-09-03T16:21:50;93733.44;;;16.57;100.00
13314;BME280;6725;48.112;11.604;2022-09-03T16:24:46;93710.28;;;16.69;100.00
13314;BME280;6725;48.112;11.604;2022-09-03T16:27:19;93703.78;;;16.92;100.00
13314;BME280;6725;48.112;11.604;2022-09-03T16:30:11;93698.31;;;16.97;100.00
13314;BME280;6725;48.112;11.604;2022-09-03T16:35:16;93700.88;;;17.01;100.00
13314;BME280;6725;48.112;11.604;2022-09-03T16:40:40;93691.97;;;17.11;100.00
13314;BME280;6725;48.112;11.604;2022-09-03T16:45:51;93706.81;;;16.94;100.00
13314;BME280;6725;48.112;11.604;2022-09-03T16:54:15;93712.66;;;17.01;100.00
13314;BME280;6725;48.112;11.604;2022-09-03T17:00:06;93698.31;;;16.97;100.00